Time;durP1;ratioP1;P1;durP2;ratioP2;P2;SDS_P1;SDS_P2;PMS_P1;PMS_P2;Temp;Humidity;BMP_temperature;BMP_pressure;BME280_temperature;BME280_humidity;BME280_pressure;Samples;Min_cycle;Max_cycle;Signal;HPM_P1;HPM_P2
2022/01/24 00:00:23;;;;;;;24.20;11.90;;;6.30;99.90;;;;;;5162992;28;20807;-50
2022/01/24 00:02:54;;;;;;;19.87;11.10;;;6.30;99.90;;;;;;5167316;28;20427;-50
2022/01/24 00:05:24;;;;;;;23.67;11.60;;;6.30;99.90;;;;;;5148673;28;20530;-52
2022/01/24 00:07:55;;;;;;;24.73;11.23;;;6.30;99.90;;;;;;5156176;28;20192;-51
2022/01/24 00:10:27;;;;;;;26.17;12.30;;;6.30;99.90;;;;;;5150570;28;20715;-51
2022/01/24 00:13:54;;;;;;;24.23;13.20;;;6.30;99.90;;;;;;5169535;28;20180;-51
2022/01/24 00:27:12;;;;;;;25.67;12.50;;;6.30;99.90;;;;;;5168280;28;20499;-53
2022/01/24 00:29:43;;;;;;;28.97;12.17;;;6.30;99.90;;;;;;5168708;28;20451;-53
2022/01/24 00:32:14;;;;;;;22.27;12.23;;;6.30;99.90;;;;;;5168828;28;20211;-50
2022/01/24 00:34:44;;;;;;;30.43;11.33;;;6.30;99.90;;;;;;5168210;28;20189;-50
2022/01/24 00:37:15;;;;;;;28.13;13.47;;;6.30;99.90;;;;;;5161713;28;20193;-53
2022/01/24 00:39:47;;;;;;;27.17;12.53;;;6.40;99.90;;;;;;5149072;28;20189;-50
2022/01/24 00:42:31;;;;;;;27.27;13.40;;;6.40;99.90;;;;;;5153448;28;20208;-51
2022/01/24 00:45:05;;;;;;;22.97;11.67;;;6.40;99.90;;;;;;5163027;28;20470;-50
2022/01/24 00:56:01;;;;;;;20.60;11.00;;;6.40;99.90;;;;;;5154509;28;20474;-50
2022/01/24 00:58:32;;;;;;;27.27;11.40;;;6.30;99.90;;;;;;5145076;28;20959;-52
2022/01/24 01:01:04;;;;;;;27.07;11.70;;;6.30;99.90;;;;;;5155282;28;20307;-49
2022/01/24 01:03:34;;;;;;;18.50;9.77;;;6.30;99.90;;;;;;5149749;28;20443;-50
2022/01/24 01:06:07;;;;;;;23.10;11.83;;;6.30;99.90;;;;;;5148303;28;20917;-49
2022/01/24 01:20:01;;;;;;;23.87;12.30;;;6.30;99.90;;;;;;5169480;28;20466;-51
2022/01/24 01:22:31;;;;;;;19.73;11.10;;;6.30;99.90;;;;;;5165647;28;20530;-48
2022/01/24 01:25:02;;;;;;;27.33;11.30;;;6.30;99.90;;;;;;5151533;28;20278;-50
2022/01/24 01:27:39;;;;;;;27.70;13.40;;;6.30;99.90;;;;;;5164146;28;20256;-51
2022/01/24 01:30:17;;;;;;;21.20;11.37;;;6.30;99.90;;;;;;5166403;28;20283;-49
2022/01/24 01:33:06;;;;;;;22.40;14.07;;;6.30;99.90;;;;;;5169040;28;20771;-50
2022/01/24 01:36:01;;;;;;;19.20;12.20;;;6.30;99.90;;;;;;5168811;28;20517;-50
2022/01/24 01:39:27;;;;;;;22.00;13.33;;;6.20;99.90;;;;;;5168586;28;20523;-49
2022/01/24 01:53:28;;;;;;;24.10;12.80;;;6.20;99.90;;;;;;5172408;28;20482;-52
2022/01/24 01:55:56;;;;;;;21.10;13.10;;;6.30;99.90;;;;;;5155647;28;20531;-50
2022/01/24 01:58:26;;;;;;;24.13;14.37;;;6.30;99.90;;;;;;5170355;28;20485;-50
2022/01/24 02:00:59;;;;;;;24.00;13.67;;;6.20;99.90;;;;;;5152935;28;20269;-50
2022/01/24 02:03:31;;;;;;;27.43;13.40;;;6.20;99.90;;;;;;5152636;28;20284;-49
2022/01/24 02:06:02;;;;;;;20.33;11.90;;;6.30;99.90;;;;;;5171300;28;20478;-50
2022/01/24 02:08:33;;;;;;;27.00;14.83;;;6.30;99.90;;;;;;5154949;28;20447;-49
2022/01/24 02:11:04;;;;;;;20.30;12.00;;;6.30;99.90;;;;;;5154525;28;20514;-50
2022/01/24 02:13:35;;;;;;;22.43;13.17;;;6.30;99.90;;;;;;5172502;28;20444;-49
2022/01/24 02:16:15;;;;;;;18.00;13.10;;;6.20;99.90;;;;;;5154088;28;20209;-50
2022/01/24 02:18:54;;;;;;;26.83;14.27;;;6.30;99.90;;;;;;5171302;28;20529;-49
2022/01/24 02:21:29;;;;;;;30.47;13.30;;;6.20;99.90;;;;;;5152023;28;20486;-52
2022/01/24 02:23:59;;;;;;;26.37;14.10;;;6.20;99.90;;;;;;5171530;28;20447;-51
2022/01/24 02:26:32;;;;;;;21.27;12.50;;;6.20;99.90;;;;;;5149541;28;20474;-49
2022/01/24 02:31:48;;;;;;;17.83;12.07;;;6.20;99.90;;;;;;5167908;28;20459;-50
2022/01/24 02:34:27;;;;;;;21.10;11.03;;;6.10;99.90;;;;;;5146403;28;20466;-52
2022/01/24 02:37:02;;;;;;;16.90;11.17;;;6.10;99.90;;;;;;5144296;28;20489;-51
2022/01/24 02:53:49;;;;;;;19.47;12.13;;;6.10;99.90;;;;;;5169006;28;20809;-51
2022/01/24 02:56:19;;;;;;;18.67;11.87;;;6.10;99.90;;;;;;5166521;28;20575;-49
2022/01/24 02:58:50;;;;;;;16.50;11.00;;;6.00;99.90;;;;;;5156662;28;20220;-50
2022/01/24 03:01:20;;;;;;;13.70;11.10;;;6.00;99.90;;;;;;5166885;28;20283;-51
2022/01/24 03:03:51;;;;;;;19.17;11.37;;;6.00;99.90;;;;;;5168305;28;20189;-50
2022/01/24 03:06:21;;;;;;;20.50;12.53;;;6.00;99.90;;;;;;5167263;28;20361;-49
2022/01/24 03:08:52;;;;;;;19.80;13.13;;;6.10;99.90;;;;;;5167334;28;20557;-50
2022/01/24 03:11:27;;;;;;;21.87;12.37;;;6.00;99.90;;;;;;5166583;28;20268;-50
2022/01/24 03:13:57;;;;;;;22.57;12.13;;;6.10;99.90;;;;;;5153758;28;20185;-49
2022/01/24 03:16:28;;;;;;;18.10;11.00;;;6.00;99.90;;;;;;5151308;28;20843;-50
2022/01/24 03:18:59;;;;;;;14.60;10.37;;;5.90;99.90;;;;;;5168538;28;20183;-50
2022/01/24 03:21:29;;;;;;;16.60;11.37;;;5.90;99.90;;;;;;5158425;28;20222;-50
2022/01/24 03:24:00;;;;;;;13.23;10.60;;;5.90;99.90;;;;;;5163934;28;20193;-50
2022/01/24 03:26:30;;;;;;;14.80;9.73;;;5.80;99.90;;;;;;5152429;28;20211;-50
2022/01/24 03:29:01;;;;;;;13.30;9.90;;;5.90;99.90;;;;;;5159700;28;20186;-50
2022/01/24 03:31:33;;;;;;;12.80;9.00;;;5.80;99.90;;;;;;5147116;28;20203;-50
2022/01/24 03:34:04;;;;;;;13.50;10.00;;;5.80;99.90;;;;;;5166901;28;20263;-50
2022/01/24 03:36:34;;;;;;;17.37;9.50;;;5.80;99.90;;;;;;5165154;28;20673;-51
2022/01/24 03:39:05;;;;;;;9.07;8.13;;;5.80;99.90;;;;;;5166846;28;20203;-50
2022/01/24 03:41:36;;;;;;;16.73;8.37;;;5.80;99.90;;;;;;5149610;28;20695;-51
2022/01/24 03:44:08;;;;;;;9.57;7.80;;;5.80;99.90;;;;;;5158754;28;20192;-50
2022/01/24 03:46:48;;;;;;;12.30;7.93;;;5.90;99.90;;;;;;5167656;28;20230;-49
2022/01/24 03:52:08;;;;;;;10.23;8.10;;;5.80;99.90;;;;;;5157364;28;20450;-50
2022/01/24 03:54:43;;;;;;;10.30;7.00;;;5.90;99.90;;;;;;5148121;28;20435;-50
2022/01/24 03:57:16;;;;;;;15.90;10.20;;;5.90;99.90;;;;;;5165882;28;20276;-50
2022/01/24 03:59:47;;;;;;;20.77;11.80;;;5.90;99.90;;;;;;5148167;28;20485;-50
2022/01/24 04:02:20;;;;;;;21.10;11.63;;;5.80;99.90;;;;;;5152506;28;20436;-50
2022/01/24 04:04:51;;;;;;;23.17;14.87;;;5.90;99.90;;;;;;5161354;28;20199;-52
2022/01/24 04:07:22;;;;;;;22.70;13.70;;;5.90;99.90;;;;;;5166333;28;20432;-52
2022/01/24 04:09:52;;;;;;;22.77;14.60;;;5.90;99.90;;;;;;5165195;28;20188;-50
2022/01/24 04:12:26;;;;;;;30.10;16.20;;;5.90;99.90;;;;;;5164912;28;20179;-51
2022/01/24 04:15:10;;;;;;;26.47;16.77;;;6.00;99.90;;;;;;5164253;28;20172;-51
2022/01/24 04:17:46;;;;;;;28.27;16.40;;;5.90;99.90;;;;;;5167336;28;20518;-50
2022/01/24 04:23:06;;;;;;;22.00;15.20;;;6.00;99.90;;;;;;5124792;29;20462;-47
2022/01/24 04:25:37;;;;;;;19.90;14.73;;;6.00;99.90;;;;;;5123399;29;20511;-49
2022/01/24 04:28:08;;;;;;;23.50;14.10;;;6.00;99.90;;;;;;5123911;29;20472;-47
2022/01/24 04:30:38;;;;;;;23.90;16.30;;;6.00;99.90;;;;;;5125008;28;20252;-48
2022/01/24 04:33:09;;;;;;;29.40;14.80;;;6.00;99.90;;;;;;5125123;28;20627;-48
2022/01/24 04:35:39;;;;;;;30.07;15.70;;;6.00;99.90;;;;;;5123632;29;20837;-50
2022/01/24 04:38:10;;;;;;;20.70;14.50;;;6.00;99.90;;;;;;5124674;29;20551;-48
2022/01/24 04:40:41;;;;;;;26.50;16.10;;;6.00;99.90;;;;;;5123237;29;20216;-48
2022/01/24 04:43:31;;;;;;;28.27;17.23;;;6.00;99.90;;;;;;5124334;28;20252;-48
2022/01/24 04:46:10;;;;;;;30.30;17.80;;;6.00;99.90;;;;;;5124813;28;20552;-48
2022/01/24 04:51:38;;;;;;;28.27;17.00;;;6.00;99.90;;;;;;5124669;29;20519;-47
2022/01/24 04:56:41;;;;;;;24.47;15.13;;;6.10;99.90;;;;;;5125511;29;20421;-48
2022/01/24 04:59:12;;;;;;;24.17;15.03;;;6.00;99.90;;;;;;5125193;28;20209;-47
2022/01/24 05:01:42;;;;;;;21.70;15.17;;;6.00;99.90;;;;;;5124803;29;20477;-46
2022/01/24 05:04:13;;;;;;;24.37;14.43;;;6.00;99.90;;;;;;5124422;29;20249;-48
2022/01/24 05:06:44;;;;;;;22.40;14.00;;;6.10;99.90;;;;;;5122792;29;20241;-48
2022/01/24 05:09:16;;;;;;;28.93;13.90;;;6.10;99.90;;;;;;5124250;29;20481;-48
2022/01/24 05:25:39;;;;;;;18.67;13.00;;;6.00;99.90;;;;;;5122841;29;20992;-47
2022/01/24 05:28:10;;;;;;;21.97;12.90;;;6.00;99.90;;;;;;5124352;28;20449;-48
2022/01/24 05:30:44;;;;;;;20.80;12.97;;;6.00;99.90;;;;;;5125085;28;20516;-48
2022/01/24 05:33:14;;;;;;;24.17;12.77;;;6.00;99.90;;;;;;5107151;29;20621;-49
2022/01/24 05:35:45;;;;;;;23.27;12.80;;;6.00;99.90;;;;;;5119463;28;20524;-47
2022/01/24 05:38:17;;;;;;;25.47;12.70;;;6.00;99.90;;;;;;5107487;29;20225;-48
2022/01/24 05:40:48;;;;;;;19.63;12.73;;;6.00;99.90;;;;;;5109363;29;20468;-47
2022/01/24 05:43:19;;;;;;;19.13;12.60;;;6.00;99.90;;;;;;5107452;29;20510;-48
2022/01/24 05:45:50;;;;;;;19.67;13.00;;;6.00;99.90;;;;;;5107332;29;20501;-47
2022/01/24 05:48:20;;;;;;;21.57;11.93;;;5.90;99.90;;;;;;5107857;29;20268;-48
2022/01/24 05:50:51;;;;;;;25.60;14.27;;;5.90;99.90;;;;;;5107828;29;20757;-47
2022/01/24 05:53:22;;;;;;;20.90;12.63;;;6.00;99.90;;;;;;5124933;29;20191;-48
2022/01/24 05:55:53;;;;;;;21.43;13.73;;;6.00;99.90;;;;;;5125092;29;20210;-47
2022/01/24 05:58:24;;;;;;;19.43;12.87;;;5.90;99.90;;;;;;5124934;29;20534;-47
2022/01/24 06:00:54;;;;;;;29.10;15.40;;;5.90;99.90;;;;;;5109581;29;20461;-48
2022/01/24 06:03:25;;;;;;;24.13;15.40;;;5.90;99.90;;;;;;5112053;28;20194;-47
2022/01/24 06:05:55;;;;;;;26.40;15.63;;;5.90;99.90;;;;;;5110869;29;20224;-49
2022/01/24 06:08:26;;;;;;;27.17;13.37;;;5.90;99.90;;;;;;5110276;29;20212;-47
2022/01/24 06:10:58;;;;;;;23.50;15.60;;;5.90;99.90;;;;;;5103719;29;20203;-47
2022/01/24 06:13:31;;;;;;;26.07;15.70;;;5.90;99.90;;;;;;5128395;29;20175;-47
2022/01/24 06:16:01;;;;;;;26.10;16.27;;;5.90;99.90;;;;;;5127952;29;20444;-48
2022/01/24 06:18:32;;;;;;;28.57;16.20;;;5.90;99.90;;;;;;5121002;29;20437;-47
2022/01/24 06:21:02;;;;;;;33.27;18.70;;;5.90;99.90;;;;;;5104505;29;20241;-47
2022/01/24 06:23:33;;;;;;;22.50;15.03;;;6.00;99.90;;;;;;5119572;29;20199;-48
2022/01/24 06:26:03;;;;;;;21.43;14.20;;;5.90;99.90;;;;;;5119069;28;20221;-47
2022/01/24 06:28:34;;;;;;;22.23;13.60;;;5.80;99.90;;;;;;5104539;29;20292;-47
2022/01/24 06:31:04;;;;;;;20.43;13.47;;;5.80;99.90;;;;;;5103646;29;20221;-48
2022/01/24 06:33:35;;;;;;;22.47;13.93;;;5.80;99.90;;;;;;5125072;28;20646;-47
2022/01/24 06:36:06;;;;;;;21.93;14.23;;;5.80;99.90;;;;;;5091743;29;20183;-47
2022/01/24 06:38:36;;;;;;;23.63;13.90;;;5.80;99.90;;;;;;5121829;28;20186;-48
2022/01/24 06:41:07;;;;;;;23.30;15.27;;;5.80;99.90;;;;;;5122378;28;20250;-47
2022/01/24 06:43:37;;;;;;;23.27;13.90;;;5.90;99.90;;;;;;5123420;29;20195;-47
2022/01/24 06:46:08;;;;;;;20.40;12.07;;;5.80;99.90;;;;;;5117237;29;20207;-48
2022/01/24 06:48:38;;;;;;;20.70;12.00;;;5.80;99.90;;;;;;5116388;28;20216;-47
2022/01/24 06:51:10;;;;;;;13.97;10.63;;;5.90;99.90;;;;;;5094715;28;20249;-48
2022/01/24 06:53:41;;;;;;;14.60;11.83;;;5.90;99.90;;;;;;5114736;28;20188;-48
2022/01/24 06:56:12;;;;;;;17.60;11.37;;;5.90;99.90;;;;;;5123933;28;20469;-47
2022/01/24 06:58:43;;;;;;;20.50;10.40;;;5.90;99.90;;;;;;5123859;29;20470;-47
2022/01/24 07:01:14;;;;;;;12.20;9.87;;;5.90;99.90;;;;;;5123355;28;20251;-47
2022/01/24 07:03:44;;;;;;;16.50;10.63;;;5.90;99.90;;;;;;5108230;29;20475;-49
2022/01/24 07:06:15;;;;;;;16.90;11.80;;;5.90;99.90;;;;;;5104198;29;20546;-47
2022/01/24 07:08:46;;;;;;;19.47;11.53;;;5.90;99.90;;;;;;5103079;29;20659;-47
2022/01/24 07:11:16;;;;;;;15.03;10.90;;;5.90;99.90;;;;;;5111396;28;20273;-48
2022/01/24 07:13:47;;;;;;;15.93;10.83;;;5.90;99.90;;;;;;5123190;28;20617;-48
2022/01/24 07:16:17;;;;;;;19.63;11.10;;;6.00;99.90;;;;;;5103769;29;20273;-48
2022/01/24 07:18:58;;;;;;;14.90;10.40;;;6.00;99.90;;;;;;5105420;29;20213;-47
2022/01/24 07:21:28;;;;;;;13.63;9.47;;;5.90;99.90;;;;;;5115215;29;20213;-48
2022/01/24 07:23:59;;;;;;;11.33;9.60;;;5.90;99.90;;;;;;5116849;28;20457;-46
2022/01/24 07:26:32;;;;;;;11.73;9.27;;;5.90;99.90;;;;;;5121240;28;20267;-47
2022/01/24 07:29:02;;;;;;;16.30;9.67;;;5.90;99.90;;;;;;5105881;29;20259;-47
2022/01/24 07:31:33;;;;;;;17.23;9.00;;;5.90;99.90;;;;;;5118857;28;20459;-47
2022/01/24 07:34:03;;;;;;;12.40;8.80;;;5.90;99.90;;;;;;5121104;29;20256;-47
2022/01/24 07:36:34;;;;;;;12.43;9.53;;;5.90;99.90;;;;;;5111036;29;20233;-48
2022/01/24 07:39:05;;;;;;;14.57;9.63;;;6.00;99.90;;;;;;5115960;29;20269;-48
2022/01/24 07:41:43;;;;;;;13.00;9.70;;;6.10;99.90;;;;;;5122290;29;20244;-47
2022/01/24 07:44:15;;;;;;;16.63;10.30;;;6.00;99.90;;;;;;5122824;29;20182;-48
2022/01/24 07:46:47;;;;;;;14.80;9.70;;;6.00;99.90;;;;;;5125829;28;20482;-47
2022/01/24 07:49:17;;;;;;;14.93;10.57;;;5.90;99.90;;;;;;5118739;28;21100;-49
2022/01/24 07:51:48;;;;;;;12.00;8.83;;;5.90;99.90;;;;;;5123722;28;20537;-47
2022/01/24 07:54:18;;;;;;;18.53;9.40;;;5.90;99.90;;;;;;5124486;28;20269;-48
2022/01/24 07:56:49;;;;;;;11.17;9.00;;;5.80;99.90;;;;;;5118733;29;20309;-46
2022/01/24 07:59:20;;;;;;;11.07;8.43;;;5.90;99.90;;;;;;5114570;29;20200;-47
2022/01/24 08:01:50;;;;;;;13.63;8.80;;;5.90;99.90;;;;;;5117235;28;20220;-47
2022/01/24 08:04:21;;;;;;;12.43;9.43;;;6.00;99.90;;;;;;5116789;29;20538;-47
2022/01/24 08:06:53;;;;;;;14.30;8.33;;;6.00;99.90;;;;;;5133069;28;20622;-48
2022/01/24 08:09:24;;;;;;;11.87;9.20;;;6.10;99.90;;;;;;5115576;28;20181;-47
2022/01/24 08:11:55;;;;;;;12.97;8.20;;;6.20;99.90;;;;;;5121533;28;20469;-49
2022/01/24 08:14:27;;;;;;;13.53;7.83;;;6.20;99.90;;;;;;5121873;28;20945;-48
2022/01/24 08:16:59;;;;;;;13.50;9.37;;;6.30;99.90;;;;;;5108741;28;21044;-47
2022/01/24 08:19:32;;;;;;;11.13;8.90;;;6.30;99.90;;;;;;5116304;29;20552;-48
2022/01/24 08:22:04;;;;;;;12.10;8.50;;;6.40;99.90;;;;;;5118083;28;20575;-48
2022/01/24 08:24:35;;;;;;;12.07;8.43;;;6.40;99.90;;;;;;5124286;28;20449;-48
2022/01/24 08:27:06;;;;;;;10.77;8.27;;;6.50;99.90;;;;;;5119692;29;20479;-49
2022/01/24 08:29:36;;;;;;;12.07;8.60;;;6.50;99.90;;;;;;5122278;28;20174;-47
2022/01/24 08:32:07;;;;;;;12.10;7.43;;;6.50;99.90;;;;;;5122753;28;20642;-48
2022/01/24 08:34:38;;;;;;;9.00;7.57;;;6.60;99.90;;;;;;5120496;28;20277;-48
2022/01/24 08:37:08;;;;;;;10.23;7.80;;;6.60;99.90;;;;;;5104399;28;20316;-48
2022/01/24 08:39:39;;;;;;;12.77;9.23;;;6.60;99.90;;;;;;5107149;29;20446;-47
2022/01/24 08:47:29;;;;;;;9.80;7.03;;;6.80;99.90;;;;;;5108335;28;21032;-47
2022/01/24 08:50:00;;;;;;;8.90;7.40;;;6.90;99.90;;;;;;5119433;29;20528;-47
2022/01/24 08:52:31;;;;;;;9.70;7.53;;;6.90;99.90;;;;;;5124349;28;20558;-48
2022/01/24 08:55:02;;;;;;;10.33;7.73;;;6.80;99.90;;;;;;5105660;29;20178;-48
2022/01/24 08:57:33;;;;;;;11.83;8.10;;;6.70;99.90;;;;;;5097911;29;20441;-48
2022/01/24 09:00:06;;;;;;;9.97;7.50;;;6.90;99.90;;;;;;5099287;29;20449;-47
2022/01/24 09:02:36;;;;;;;9.70;7.57;;;7.10;99.90;;;;;;5084479;29;20186;-49
2022/01/24 09:05:07;;;;;;;9.07;6.73;;;7.20;99.90;;;;;;5100417;29;20455;-47
2022/01/24 09:07:38;;;;;;;12.13;7.17;;;7.30;99.90;;;;;;5110770;29;20178;-47
2022/01/24 09:10:09;;;;;;;10.57;6.67;;;7.20;99.90;;;;;;5110934;28;20287;-47
2022/01/24 09:12:39;;;;;;;10.10;7.00;;;7.30;99.90;;;;;;5099380;28;20686;-47
2022/01/24 09:15:10;;;;;;;6.67;5.93;;;7.40;99.90;;;;;;5113284;28;20207;-47
2022/01/24 09:17:43;;;;;;;8.10;6.90;;;7.40;99.90;;;;;;5096089;29;20182;-48
2022/01/24 09:20:14;;;;;;;8.87;7.30;;;7.40;99.90;;;;;;5100911;28;20233;-48
2022/01/24 09:22:46;;;;;;;9.30;7.20;;;7.40;99.90;;;;;;5114512;28;20445;-48
2022/01/24 09:25:19;;;;;;;14.40;7.20;;;7.50;99.90;;;;;;5116308;28;20198;-48
2022/01/24 09:27:50;;;;;;;10.77;7.33;;;7.60;99.90;;;;;;5108952;29;20520;-49
2022/01/24 09:30:23;;;;;;;10.33;6.97;;;7.50;99.90;;;;;;5115608;28;20821;-47
2022/01/24 09:32:53;;;;;;;9.70;6.90;;;7.50;99.90;;;;;;5097936;29;20183;-48
2022/01/24 09:35:27;;;;;;;10.23;6.43;;;7.40;99.90;;;;;;5120561;28;20457;-48
2022/01/24 09:37:58;;;;;;;8.77;6.80;;;7.60;99.90;;;;;;5123163;28;20190;-48
2022/01/24 09:40:28;;;;;;;12.23;7.17;;;7.60;99.90;;;;;;5112938;28;20462;-50
2022/01/24 09:43:00;;;;;;;12.87;6.20;;;7.70;99.90;;;;;;5120762;28;20186;-49
2022/01/24 09:45:31;;;;;;;9.47;7.03;;;7.70;99.90;;;;;;5123892;28;20786;-48
2022/01/24 09:48:03;;;;;;;11.87;7.53;;;7.70;99.90;;;;;;5117693;28;20492;-47
2022/01/24 09:50:34;;;;;;;12.03;6.57;;;7.70;99.90;;;;;;5117850;28;20467;-47
2022/01/24 09:53:05;;;;;;;12.20;8.13;;;7.80;99.90;;;;;;5121191;28;20444;-48
2022/01/24 09:55:35;;;;;;;9.37;6.27;;;7.90;99.90;;;;;;5089336;29;20210;-49
2022/01/24 09:58:06;;;;;;;10.80;7.90;;;7.90;99.90;;;;;;5119544;28;20520;-47
2022/01/24 10:00:38;;;;;;;7.33;6.30;;;8.00;99.90;;;;;;5121572;28;20216;-48
2022/01/24 10:03:10;;;;;;;9.33;5.97;;;8.00;99.90;;;;;;5118861;28;20190;-49
2022/01/24 10:05:42;;;;;;;6.77;6.07;;;8.10;99.90;;;;;;5104887;29;20500;-47
2022/01/24 10:08:16;;;;;;;9.50;6.37;;;8.10;99.90;;;;;;5123222;28;20957;-48
2022/01/24 10:10:52;;;;;;;10.70;7.10;;;8.10;99.90;;;;;;5105681;29;20458;-47
2022/01/24 10:16:26;;;;;;;9.23;6.50;;;7.90;99.90;;;;;;5121503;28;20469;-47
2022/01/24 10:19:15;;;;;;;11.60;6.20;;;7.70;99.90;;;;;;5123296;28;20437;-47
2022/01/24 10:21:52;;;;;;;14.23;7.43;;;7.50;99.90;;;;;;5128781;23;20531;-51
2022/01/24 10:24:34;;;;;;;11.83;7.70;;;7.50;99.90;;;;;;5111537;28;20448;-52
2022/01/24 10:27:07;;;;;;;8.17;6.30;;;7.30;99.90;;;;;;5135617;28;20466;-53
2022/01/24 10:29:44;;;;;;;8.30;5.90;;;7.30;99.90;;;;;;5144663;28;20437;-51
2022/01/24 10:32:30;;;;;;;10.83;6.40;;;7.40;99.90;;;;;;5116238;28;20445;-52
2022/01/24 10:35:23;;;;;;;6.67;5.43;;;7.40;99.90;;;;;;5120255;28;20493;-52
2022/01/24 10:38:16;;;;;;;7.73;5.73;;;7.30;99.90;;;;;;5136352;28;20432;-52
2022/01/24 10:41:08;;;;;;;11.13;7.03;;;7.40;99.90;;;;;;5118957;28;20462;-52
2022/01/24 10:43:39;;;;;;;11.13;7.50;;;7.40;99.90;;;;;;5132645;28;20444;-52
2022/01/24 10:46:11;;;;;;;14.30;8.70;;;7.50;99.90;;;;;;5114842;28;20536;-53
2022/01/24 10:48:44;;;;;;;10.70;6.70;;;7.50;99.90;;;;;;5137592;28;20472;-51
2022/01/24 10:51:20;;;;;;;13.03;6.90;;;7.50;99.90;;;;;;5122661;28;20469;-54
2022/01/24 10:53:55;;;;;;;10.03;6.73;;;7.50;99.90;;;;;;5125517;28;21509;-51
2022/01/24 10:56:43;;;;;;;9.53;7.07;;;7.50;99.90;;;;;;5126992;28;20551;-52
2022/01/24 10:59:22;;;;;;;7.07;5.80;;;7.50;99.90;;;;;;5130076;28;20441;-52
2022/01/24 11:01:56;;;;;;;10.73;7.03;;;7.50;99.90;;;;;;5125915;28;20528;-53
2022/01/24 11:04:27;;;;;;;9.20;6.97;;;7.40;99.90;;;;;;5130163;28;21149;-51
2022/01/24 11:07:01;;;;;;;8.27;5.80;;;7.30;99.90;;;;;;5131139;28;20569;-51
2022/01/24 11:09:37;;;;;;;7.80;5.40;;;7.20;99.90;;;;;;5133342;28;20742;-52
2022/01/24 11:12:11;;;;;;;10.40;7.60;;;7.10;99.90;;;;;;5135297;28;20463;-51
2022/01/24 11:14:44;;;;;;;8.87;7.33;;;7.10;99.90;;;;;;5133994;28;20438;-53
2022/01/24 11:17:20;;;;;;;13.70;9.93;;;7.00;99.90;;;;;;5130428;28;20442;-51
2022/01/24 11:19:57;;;;;;;19.93;11.93;;;7.00;99.90;;;;;;5124827;28;20445;-53
2022/01/24 11:22:30;;;;;;;5.77;5.23;;;7.20;99.90;;;;;;5117124;28;20465;-52
2022/01/24 11:25:06;;;;;;;7.30;5.57;;;7.10;99.90;;;;;;5132701;28;20772;-51
2022/01/24 11:27:39;;;;;;;6.13;5.53;;;7.10;99.90;;;;;;5137219;28;20463;-52
2022/01/24 11:30:14;;;;;;;6.20;5.27;;;7.10;99.90;;;;;;5090883;28;20446;-52
2022/01/24 11:32:50;;;;;;;10.13;5.87;;;7.10;99.90;;;;;;5115334;29;20442;-52
2022/01/24 11:35:35;;;;;;;9.07;6.47;;;7.00;99.90;;;;;;5116865;28;20433;-51
2022/01/24 11:38:26;;;;;;;7.80;5.50;;;7.00;99.90;;;;;;5120006;28;20960;-52
2022/01/24 11:41:01;;;;;;;5.80;5.00;;;6.90;99.90;;;;;;5118166;28;20469;-51
2022/01/24 11:43:39;;;;;;;5.10;4.60;;;6.80;99.90;;;;;;5123747;28;20441;-52
2022/01/24 11:46:34;;;;;;;5.17;4.70;;;6.70;99.90;;;;;;5130162;28;20479;-53
2022/01/24 11:49:08;;;;;;;5.23;4.70;;;6.70;99.90;;;;;;5130600;28;20434;-52
2022/01/24 11:51:41;;;;;;;15.20;11.13;;;6.70;99.90;;;;;;5133412;28;21052;-51
2022/01/24 11:54:44;;;;;;;6.93;5.57;;;6.50;99.90;;;;;;5115571;28;20504;-52
2022/01/24 11:57:32;;;;;;;9.97;5.50;;;6.50;99.90;;;;;;5116727;28;20504;-52
2022/01/24 12:00:04;;;;;;;7.60;5.03;;;6.40;99.90;;;;;;5128352;28;20457;-51
2022/01/24 12:02:49;;;;;;;8.27;5.87;;;6.40;99.90;;;;;;5130334;28;20569;-52
2022/01/24 12:05:27;;;;;;;10.70;6.73;;;6.30;99.90;;;;;;5112829;28;20968;-52
2022/01/24 12:08:00;;;;;;;12.10;5.07;;;6.40;99.90;;;;;;5128024;28;20453;-52
2022/01/24 12:10:38;;;;;;;6.77;3.70;;;6.40;99.90;;;;;;5119236;28;20441;-55
2022/01/24 12:13:35;;;;;;;9.57;4.73;;;6.30;99.90;;;;;;5129188;28;20444;-52
2022/01/24 12:16:07;;;;;;;7.30;4.30;;;6.30;99.90;;;;;;5113373;28;20849;-52
2022/01/24 12:18:38;;;;;;;5.03;4.53;;;6.30;99.90;;;;;;5123509;28;20523;-52
2022/01/24 12:21:10;;;;;;;11.90;4.90;;;6.20;99.90;;;;;;5117645;28;20899;-51
2022/01/24 12:23:44;;;;;;;6.37;5.10;;;6.30;99.90;;;;;;5133178;28;20193;-51
2022/01/24 12:26:15;;;;;;;5.10;4.60;;;6.20;99.90;;;;;;5109934;28;20480;-51
2022/01/24 12:28:48;;;;;;;7.90;5.83;;;6.30;99.90;;;;;;5120326;28;20991;-52
2022/01/24 12:31:28;;;;;;;10.60;6.67;;;6.30;99.90;;;;;;5128281;28;20279;-53
2022/01/24 12:34:19;;;;;;;8.43;5.47;;;6.30;99.90;;;;;;5107053;28;20971;-52
2022/01/24 12:37:00;;;;;;;7.90;4.33;;;6.30;99.90;;;;;;5135764;28;20434;-52
2022/01/24 12:39:47;;;;;;;24.10;12.07;;;6.40;99.90;;;;;;5112921;28;20421;-52
2022/01/24 12:42:52;;;;;;;17.43;10.13;;;6.50;99.90;;;;;;5122743;28;20457;-51
2022/01/24 12:48:18;;;;;;;10.43;6.00;;;6.40;99.90;;;;;;5141729;28;20945;-54
2022/01/24 12:50:51;;;;;;;7.97;5.43;;;6.40;99.90;;;;;;5128221;28;20507;-51
2022/01/24 12:53:22;;;;;;;6.63;4.80;;;6.40;99.90;;;;;;5133088;28;20470;-53
2022/01/24 12:56:04;;;;;;;18.47;6.00;;;6.40;99.90;;;;;;5135404;28;20843;-54
2022/01/24 12:58:40;;;;;;;6.20;5.27;;;6.40;99.90;;;;;;5125291;28;20208;-51
2022/01/24 13:01:27;;;;;;;6.87;5.20;;;6.30;99.90;;;;;;5131853;28;20982;-52
2022/01/24 13:04:10;;;;;;;5.03;4.27;;;6.20;99.90;;;;;;5129296;28;20480;-52
2022/01/24 13:06:46;;;;;;;6.40;4.97;;;6.20;99.90;;;;;;5130301;28;20892;-52
2022/01/24 13:09:19;;;;;;;6.77;5.63;;;6.10;99.90;;;;;;5114904;28;20452;-52
2022/01/24 13:11:53;;;;;;;6.83;5.73;;;6.00;99.90;;;;;;5116839;28;20457;-52
2022/01/24 13:23:05;;;;;;;9.77;6.13;;;6.00;99.90;;;;;;5133898;28;20456;-53
2022/01/24 13:25:40;;;;;;;6.60;5.30;;;6.00;99.90;;;;;;5132977;28;20997;-52
2022/01/24 13:28:13;;;;;;;5.37;4.97;;;6.00;99.90;;;;;;5130276;28;20496;-52
2022/01/24 13:30:46;;;;;;;8.70;6.67;;;6.00;99.90;;;;;;5113844;28;20499;-52
2022/01/24 13:33:20;;;;;;;8.17;7.20;;;6.10;99.90;;;;;;5133926;28;20471;-54
2022/01/24 13:35:58;;;;;;;9.20;6.80;;;6.20;99.90;;;;;;5116496;28;20448;-52
2022/01/24 13:38:33;;;;;;;6.13;5.47;;;6.20;99.90;;;;;;5113320;28;20570;-52
2022/01/24 13:41:15;;;;;;;8.10;6.10;;;6.10;99.90;;;;;;5129523;28;20459;-51
2022/01/24 13:43:45;;;;;;;10.53;6.40;;;6.10;99.90;;;;;;5121592;28;20437;-52
2022/01/24 13:46:25;;;;;;;8.63;6.30;;;6.10;99.90;;;;;;5133960;28;20503;-52
2022/01/24 13:49:04;;;;;;;9.77;7.30;;;6.10;99.90;;;;;;5135154;28;20696;-51
2022/01/24 13:51:46;;;;;;;8.80;6.83;;;6.00;99.90;;;;;;5133843;28;20669;-51
2022/01/24 13:54:22;;;;;;;11.30;7.90;;;5.80;99.90;;;;;;5132215;28;20480;-53
2022/01/24 13:56:57;;;;;;;12.67;7.90;;;5.80;99.90;;;;;;5131647;28;20439;-52
2022/01/24 13:59:30;;;;;;;10.63;7.63;;;5.80;99.90;;;;;;5139831;28;20459;-51
2022/01/24 14:02:17;;;;;;;12.90;8.23;;;5.70;99.90;;;;;;5136970;28;20468;-52
2022/01/24 14:04:49;;;;;;;11.80;8.10;;;5.70;99.90;;;;;;5122091;28;20800;-51
2022/01/24 14:07:30;;;;;;;8.10;6.83;;;5.70;99.90;;;;;;5121199;28;20466;-51
2022/01/24 14:10:04;;;;;;;10.90;7.33;;;5.70;99.90;;;;;;5139870;28;20468;-53
2022/01/24 14:12:44;;;;;;;11.43;7.27;;;5.70;99.90;;;;;;5126520;28;20463;-53
2022/01/24 14:20:54;;;;;;;11.50;8.80;;;5.60;99.90;;;;;;5133549;28;21885;-52
2022/01/24 14:23:35;;;;;;;13.40;9.50;;;5.70;99.90;;;;;;5140426;28;20540;-50
2022/01/24 14:26:21;;;;;;;13.57;9.03;;;5.70;99.90;;;;;;5118180;28;20485;-54
2022/01/24 14:29:11;;;;;;;15.83;9.77;;;5.70;99.90;;;;;;5137676;28;20583;-51
2022/01/24 14:31:45;;;;;;;12.33;7.90;;;5.70;99.90;;;;;;5138401;28;20456;-51
2022/01/24 14:34:18;;;;;;;11.70;9.20;;;5.80;99.90;;;;;;5135486;28;20437;-52
2022/01/24 14:37:04;;;;;;;12.03;8.63;;;5.70;99.90;;;;;;5142611;28;20428;-51
2022/01/24 14:39:47;;;;;;;10.87;9.20;;;5.60;99.90;;;;;;5140974;28;20855;-52
2022/01/24 14:42:33;;;;;;;18.17;9.70;;;5.60;99.90;;;;;;5127320;28;20490;-52
2022/01/24 14:45:04;;;;;;;14.50;9.37;;;5.40;99.90;;;;;;5113674;28;20440;-51
2022/01/24 14:47:35;;;;;;;26.67;12.57;;;5.50;99.90;;;;;;5126802;28;20471;-51
2022/01/24 14:50:06;;;;;;;28.57;17.27;;;5.50;99.90;;;;;;5127672;28;20655;-52
2022/01/24 14:52:36;;;;;;;40.23;18.87;;;5.40;99.90;;;;;;5131783;28;20952;-52
2022/01/24 14:55:10;;;;;;;18.37;10.90;;;5.40;99.90;;;;;;5130863;28;20541;-53
2022/01/24 14:57:40;;;;;;;15.70;9.60;;;5.40;99.90;;;;;;5128614;28;20661;-52
2022/01/24 15:00:11;;;;;;;15.63;9.50;;;5.40;99.90;;;;;;5129740;28;20475;-52
2022/01/24 15:02:42;;;;;;;18.03;9.73;;;5.50;99.90;;;;;;5127807;28;20214;-53
2022/01/24 15:05:12;;;;;;;19.10;10.40;;;5.40;99.90;;;;;;5126983;28;20509;-51
2022/01/24 15:07:44;;;;;;;23.13;12.07;;;5.40;99.90;;;;;;5126994;28;20195;-52
2022/01/24 15:10:15;;;;;;;30.90;10.27;;;5.40;99.90;;;;;;5131705;28;20175;-52